Time;durP1;ratioP1;P1;durP2;ratioP2;P2;SDS_P1;SDS_P2;PMS_P1;PMS_P2;Temp;Humidity;BMP_temperature;BMP_pressure;BME280_temperature;BME280_humidity;BME280_pressure;Samples;Min_cycle;Max_cycle;Signal;HPM_P1;HPM_P2
2021/06/30 00:00:13;;;;;;;0.60;0.60;;;25.50;55.90;;;;;;5070582;28;20094;-56
2021/06/30 00:02:39;;;;;;;0.88;0.70;;;25.60;56.00;;;;;;5050962;28;20393;-58
2021/06/30 00:05:07;;;;;;;1.55;0.60;;;25.60;56.00;;;;;;5056446;28;20032;-58
2021/06/30 00:07:33;;;;;;;0.30;0.30;;;25.60;55.90;;;;;;5068820;28;20108;-57
2021/06/30 00:10:00;;;;;;;0.88;0.50;;;25.60;55.90;;;;;;5051170;28;20482;-58
2021/06/30 00:12:26;;;;;;;0.75;0.50;;;25.60;55.90;;;;;;5055350;28;20578;-58
2021/06/30 00:14:52;;;;;;;0.70;0.43;;;25.60;55.80;;;;;;5062000;28;20112;-57
2021/06/30 00:17:19;;;;;;;1.50;1.25;;;25.60;55.80;;;;;;5069181;28;20035;-58
2021/06/30 00:19:45;;;;;;;3.17;0.70;;;25.60;55.90;;;;;;5059591;28;20025;-58
2021/06/30 00:22:11;;;;;;;0.75;0.47;;;25.60;55.80;;;;;;5057649;28;20146;-58
2021/06/30 00:24:36;;;;;;;1.42;0.60;;;25.60;55.70;;;;;;5062529;28;20037;-58
2021/06/30 00:27:02;;;;;;;1.33;0.50;;;25.60;55.70;;;;;;5054883;28;20033;-58
2021/06/30 00:29:28;;;;;;;1.60;0.70;;;25.60;55.60;;;;;;5053439;28;20029;-58
2021/06/30 00:31:54;;;;;;;2.05;0.70;;;25.60;55.50;;;;;;5061908;28;20036;-58
2021/06/30 00:34:19;;;;;;;1.40;0.50;;;25.50;55.40;;;;;;5063910;28;20025;-56
2021/06/30 00:36:47;;;;;;;3.40;0.60;;;25.50;55.40;;;;;;5072857;28;20901;-58
2021/06/30 00:39:15;;;;;;;1.00;0.55;;;25.50;55.30;;;;;;5073707;28;20485;-58
2021/06/30 00:41:44;;;;;;;2.53;0.70;;;25.50;55.30;;;;;;5062359;28;20033;-58
2021/06/30 00:44:11;;;;;;;1.77;0.50;;;25.50;55.10;;;;;;5056307;28;20025;-58
2021/06/30 00:46:37;;;;;;;1.27;0.50;;;25.50;55.10;;;;;;5053151;28;20475;-58
2021/06/30 00:49:06;;;;;;;1.77;0.57;;;25.50;55.10;;;;;;5069725;28;20066;-58
2021/06/30 00:51:32;;;;;;;1.33;0.40;;;25.50;55.00;;;;;;5066272;28;20033;-58
2021/06/30 00:53:58;;;;;;;0.75;0.43;;;25.50;55.00;;;;;;5058607;28;20120;-58
2021/06/30 00:56:28;;;;;;;0.68;0.50;;;25.50;54.90;;;;;;5054570;28;20025;-54
2021/06/30 00:58:58;;;;;;;0.73;0.50;;;25.50;54.70;;;;;;5035480;28;20055;-58
2021/06/30 01:01:24;;;;;;;1.55;0.50;;;25.50;54.60;;;;;;5067869;28;20064;-55
2021/06/30 01:03:51;;;;;;;0.93;0.60;;;25.50;54.60;;;;;;5065175;28;20052;-56
2021/06/30 01:06:18;;;;;;;0.43;0.40;;;25.50;54.60;;;;;;5073384;28;20035;-58
2021/06/30 01:08:44;;;;;;;0.52;0.47;;;25.40;54.40;;;;;;5072471;28;20253;-58
2021/06/30 01:11:10;;;;;;;0.50;0.50;;;25.40;54.50;;;;;;5065949;28;20085;-58
2021/06/30 01:13:37;;;;;;;0.52;0.40;;;25.40;54.50;;;;;;5071841;28;20086;-58
2021/06/30 01:16:03;;;;;;;1.23;0.50;;;25.40;54.50;;;;;;5072693;28;20036;-58
2021/06/30 01:18:31;;;;;;;1.90;0.70;;;25.40;54.40;;;;;;5068637;28;20375;-60
2021/06/30 01:20:58;;;;;;;0.80;0.60;;;25.40;54.40;;;;;;5068132;28;20071;-58
2021/06/30 01:23:25;;;;;;;1.05;0.40;;;25.40;54.30;;;;;;5058087;28;20473;-55
2021/06/30 01:25:51;;;;;;;0.47;0.47;;;25.30;54.20;;;;;;5064451;28;20469;-58
2021/06/30 01:28:17;;;;;;;0.65;0.40;;;25.40;54.30;;;;;;5073068;28;20024;-57
2021/06/30 01:30:46;;;;;;;0.90;0.50;;;25.30;54.10;;;;;;5055624;28;20409;-56
2021/06/30 01:33:12;;;;;;;0.57;0.40;;;25.30;54.00;;;;;;5062950;28;20033;-58
2021/06/30 01:35:37;;;;;;;1.73;0.50;;;25.30;54.10;;;;;;5053512;28;20506;-58
2021/06/30 01:38:03;;;;;;;2.97;0.57;;;25.30;53.90;;;;;;5071878;28;20028;-58
2021/06/30 01:40:30;;;;;;;0.90;0.47;;;25.20;53.70;;;;;;5066923;28;20108;-58
2021/06/30 01:42:57;;;;;;;0.65;0.40;;;25.10;53.90;;;;;;5057968;28;20034;-57
2021/06/30 01:45:23;;;;;;;1.38;0.45;;;25.10;53.80;;;;;;5053568;28;20029;-58
2021/06/30 01:47:49;;;;;;;0.50;0.40;;;25.20;53.80;;;;;;5051856;28;20051;-57
2021/06/30 01:50:16;;;;;;;0.90;0.50;;;25.20;53.80;;;;;;5068907;28;20041;-58
2021/06/30 01:52:43;;;;;;;0.77;0.57;;;25.20;53.70;;;;;;5055313;28;20120;-58
2021/06/30 01:55:09;;;;;;;1.10;0.50;;;25.20;53.60;;;;;;5072340;28;20095;-59
2021/06/30 01:57:49;;;;;;;0.60;0.40;;;25.20;53.70;;;;;;5063922;28;20040;-58
2021/06/30 02:00:17;;;;;;;0.70;0.40;;;25.20;53.70;;;;;;5053088;28;20473;-58
2021/06/30 02:02:45;;;;;;;0.63;0.30;;;25.20;53.80;;;;;;5053041;28;20029;-58
2021/06/30 02:05:22;;;;;;;0.50;0.32;;;25.20;53.80;;;;;;5058881;28;20469;-57
2021/06/30 02:07:50;;;;;;;1.15;0.60;;;25.10;53.70;;;;;;5056081;28;20024;-58
2021/06/30 02:10:16;;;;;;;3.15;0.47;;;25.20;53.90;;;;;;5063085;28;20485;-57
2021/06/30 02:12:43;;;;;;;1.90;0.40;;;25.10;53.80;;;;;;5069577;28;20115;-57
2021/06/30 02:15:15;;;;;;;0.70;0.32;;;25.20;53.80;;;;;;5056264;28;20024;-57
2021/06/30 02:17:41;;;;;;;0.77;0.32;;;25.20;53.80;;;;;;5063633;28;20056;-58
2021/06/30 02:20:09;;;;;;;1.60;0.30;;;25.10;53.60;;;;;;5061925;28;20071;-57
2021/06/30 02:22:39;;;;;;;0.93;0.40;;;25.20;53.70;;;;;;5058185;28;20021;-58
2021/06/30 02:25:11;;;;;;;3.15;0.50;;;25.20;53.70;;;;;;5052234;28;20530;-58
2021/06/30 02:27:38;;;;;;;0.70;0.30;;;25.20;53.70;;;;;;5062016;28;20040;-58
2021/06/30 02:30:11;;;;;;;0.90;0.30;;;25.20;53.60;;;;;;5058564;28;20033;-58
2021/06/30 02:32:38;;;;;;;0.50;0.40;;;25.20;53.70;;;;;;5051432;28;20035;-58
2021/06/30 02:35:09;;;;;;;0.80;0.30;;;25.20;53.90;;;;;;5057919;28;20020;-59
2021/06/30 02:37:35;;;;;;;2.55;0.55;;;25.20;53.60;;;;;;5056163;28;20053;-57
2021/06/30 02:40:01;;;;;;;1.02;0.35;;;25.10;53.40;;;;;;5059981;28;20063;-58
2021/06/30 02:42:27;;;;;;;0.55;0.40;;;25.10;53.20;;;;;;5051295;28;20065;-52
2021/06/30 02:44:53;;;;;;;0.70;0.40;;;25.10;53.30;;;;;;5062804;28;20040;-58
2021/06/30 02:47:18;;;;;;;1.48;0.38;;;25.10;53.20;;;;;;5066236;28;20525;-58
2021/06/30 02:49:44;;;;;;;0.47;0.40;;;25.10;53.20;;;;;;5062136;28;20024;-57
2021/06/30 02:52:10;;;;;;;0.40;0.28;;;25.10;53.00;;;;;;5074712;28;20045;-57
2021/06/30 02:54:35;;;;;;;1.15;0.40;;;25.00;52.80;;;;;;5058838;28;20028;-58
2021/06/30 02:57:01;;;;;;;0.30;0.30;;;25.00;52.80;;;;;;5053366;28;20033;-57
2021/06/30 02:59:27;;;;;;;1.98;0.30;;;25.00;52.60;;;;;;5052444;28;20052;-52
2021/06/30 03:01:52;;;;;;;0.50;0.20;;;25.00;52.60;;;;;;5055695;28;20374;-57
2021/06/30 03:04:18;;;;;;;0.30;0.30;;;25.00;52.50;;;;;;5068166;28;20068;-57
2021/06/30 03:06:43;;;;;;;0.73;0.40;;;25.10;52.40;;;;;;5067848;28;20032;-57
2021/06/30 03:09:09;;;;;;;0.60;0.30;;;25.00;52.30;;;;;;5059012;28;20017;-58
2021/06/30 03:11:35;;;;;;;0.28;0.20;;;25.00;52.20;;;;;;5063649;28;20033;-57
2021/06/30 03:14:01;;;;;;;1.65;0.32;;;25.00;52.10;;;;;;5074050;28;20021;-58
2021/06/30 03:16:27;;;;;;;2.03;0.32;;;24.90;51.90;;;;;;5053875;28;20504;-54
2021/06/30 03:18:52;;;;;;;0.35;0.30;;;25.00;52.00;;;;;;5068542;28;20105;-58
2021/06/30 03:21:18;;;;;;;0.20;0.20;;;25.00;51.90;;;;;;5064011;28;20037;-58
2021/06/30 03:23:44;;;;;;;0.20;0.20;;;25.00;51.70;;;;;;5070170;28;20502;-57
2021/06/30 03:26:09;;;;;;;0.47;0.30;;;25.00;51.70;;;;;;5059640;28;20031;-56
2021/06/30 03:28:35;;;;;;;1.33;0.30;;;25.00;51.70;;;;;;5052715;28;20378;-58
2021/06/30 03:31:01;;;;;;;0.30;0.30;;;25.00;51.60;;;;;;5053312;28;20087;-58
2021/06/30 03:33:26;;;;;;;0.20;0.20;;;25.00;51.60;;;;;;5052904;28;20029;-58
2021/06/30 03:35:52;;;;;;;0.52;0.30;;;25.00;51.50;;;;;;5050512;28;20033;-58
2021/06/30 03:38:18;;;;;;;0.55;0.30;;;24.90;51.40;;;;;;5051891;28;20087;-58
2021/06/30 03:40:43;;;;;;;1.60;0.30;;;24.90;51.40;;;;;;5051897;28;20371;-58
2021/06/30 03:43:09;;;;;;;0.25;0.25;;;24.80;51.30;;;;;;5063129;28;20031;-58
2021/06/30 03:45:34;;;;;;;0.30;0.30;;;24.90;51.50;;;;;;5050965;28;20033;-58
2021/06/30 03:48:00;;;;;;;0.38;0.20;;;24.90;51.40;;;;;;5065133;28;20024;-57
2021/06/30 03:50:26;;;;;;;1.08;0.20;;;24.90;51.20;;;;;;5069582;28;20025;-58
2021/06/30 03:52:51;;;;;;;0.20;0.20;;;24.90;51.10;;;;;;5052070;28;20033;-58
2021/06/30 03:55:17;;;;;;;0.20;0.20;;;24.90;51.20;;;;;;5051002;28;20021;-58
2021/06/30 03:57:42;;;;;;;1.13;0.20;;;24.80;51.00;;;;;;5034612;28;20029;-57
2021/06/30 04:00:09;;;;;;;2.92;0.40;;;24.80;51.00;;;;;;5055078;28;20090;-58
2021/06/30 04:02:34;;;;;;;0.20;0.20;;;24.90;51.10;;;;;;5070504;28;20032;-58
2021/06/30 04:05:00;;;;;;;0.17;0.10;;;24.90;51.00;;;;;;5054658;28;20035;-58
2021/06/30 04:07:26;;;;;;;0.20;0.20;;;24.90;51.00;;;;;;5070874;28;20067;-57
2021/06/30 04:09:51;;;;;;;0.50;0.25;;;25.00;50.90;;;;;;5055012;28;20053;-57
2021/06/30 04:12:17;;;;;;;1.40;0.35;;;25.00;51.00;;;;;;5061866;28;20100;-58
2021/06/30 04:14:42;;;;;;;0.20;0.20;;;25.00;50.80;;;;;;5061414;28;20537;-58
2021/06/30 04:17:08;;;;;;;0.20;0.20;;;25.00;51.00;;;;;;5056123;28;20027;-58
2021/06/30 04:19:34;;;;;;;0.52;0.20;;;25.00;50.80;;;;;;5053659;28;20063;-57
2021/06/30 04:21:59;;;;;;;1.35;0.30;;;24.90;51.00;;;;;;5071807;28;20116;-58
2021/06/30 04:24:25;;;;;;;1.10;0.30;;;24.90;50.80;;;;;;5061377;28;20108;-58
2021/06/30 04:26:51;;;;;;;0.20;0.20;;;24.90;50.90;;;;;;5061283;28;20120;-58
2021/06/30 04:29:16;;;;;;;0.20;0.20;;;24.90;50.90;;;;;;5055579;28;20060;-58
2021/06/30 04:31:42;;;;;;;0.32;0.20;;;25.00;50.80;;;;;;5072394;28;20040;-58
2021/06/30 04:34:07;;;;;;;0.52;0.22;;;25.00;50.70;;;;;;5059763;28;20025;-58
2021/06/30 04:36:33;;;;;;;0.75;0.20;;;24.90;50.80;;;;;;5070664;28;20075;-53
2021/06/30 04:38:59;;;;;;;0.40;0.20;;;24.90;50.70;;;;;;5070805;28;20040;-58
2021/06/30 04:41:24;;;;;;;0.60;0.30;;;24.90;50.80;;;;;;5053947;28;20493;-58
2021/06/30 04:43:50;;;;;;;0.10;0.10;;;25.00;50.70;;;;;;5056391;28;20037;-58
2021/06/30 04:46:16;;;;;;;0.80;0.25;;;24.90;50.80;;;;;;5061869;28;20467;-57
2021/06/30 04:48:42;;;;;;;0.30;0.30;;;25.00;50.80;;;;;;5053491;28;20037;-57
2021/06/30 04:51:07;;;;;;;0.68;0.22;;;24.90;50.70;;;;;;5061540;28;20032;-58
2021/06/30 04:53:34;;;;;;;0.30;0.10;;;24.90;50.80;;;;;;5052938;28;20059;-55
2021/06/30 04:56:00;;;;;;;1.77;0.22;;;24.90;50.80;;;;;;5059158;28;20040;-58
2021/06/30 04:58:28;;;;;;;0.25;0.20;;;25.00;50.80;;;;;;5068100;28;20037;-57
2021/06/30 05:00:55;;;;;;;0.70;0.20;;;25.00;50.80;;;;;;5054042;28;20932;-59
2021/06/30 05:03:26;;;;;;;1.10;0.20;;;25.00;50.60;;;;;;5054923;28;21575;-58
2021/06/30 05:05:52;;;;;;;1.13;0.40;;;24.90;50.50;;;;;;5067178;28;20491;-57
2021/06/30 05:08:17;;;;;;;2.85;0.47;;;25.00;49.80;;;;;;5071444;28;20112;-58
2021/06/30 05:10:43;;;;;;;2.28;0.30;;;25.00;51.00;;;;;;5057170;28;20410;-58
2021/06/30 05:13:08;;;;;;;2.85;0.30;;;25.00;50.70;;;;;;5058789;28;20408;-60
2021/06/30 05:15:34;;;;;;;0.50;0.30;;;24.80;49.60;;;;;;5072567;28;20032;-57
2021/06/30 05:18:00;;;;;;;0.95;0.40;;;23.80;50.90;;;;;;5058841;28;20033;-61
2021/06/30 05:20:26;;;;;;;1.20;0.30;;;23.10;52.30;;;;;;5057107;28;20048;-62
2021/06/30 05:22:51;;;;;;;1.33;0.30;;;22.70;53.50;;;;;;5057182;28;20680;-61
2021/06/30 05:25:17;;;;;;;1.15;0.40;;;22.60;53.80;;;;;;5070528;28;20033;-61
2021/06/30 05:27:43;;;;;;;1.23;0.40;;;22.40;54.20;;;;;;5067387;28;20025;-61
2021/06/30 05:30:09;;;;;;;0.68;0.38;;;22.30;54.50;;;;;;5053641;28;20454;-60
2021/06/30 05:32:34;;;;;;;0.40;0.20;;;22.30;54.70;;;;;;5052658;28;20429;-59
2021/06/30 05:35:00;;;;;;;0.70;0.30;;;22.20;54.90;;;;;;5068198;28;20021;-60
2021/06/30 05:37:26;;;;;;;1.38;0.60;;;22.20;54.90;;;;;;5072244;28;20029;-60
2021/06/30 05:39:52;;;;;;;1.38;0.43;;;22.20;54.90;;;;;;5067811;28;20036;-62
2021/06/30 05:42:17;;;;;;;2.10;0.50;;;22.20;55.10;;;;;;5059312;28;20105;-64
2021/06/30 05:44:43;;;;;;;4.28;0.43;;;22.10;54.80;;;;;;5053347;28;20483;-60
2021/06/30 05:47:08;;;;;;;1.95;0.40;;;22.10;54.80;;;;;;5070650;28;20020;-62
2021/06/30 05:49:34;;;;;;;1.90;0.35;;;21.90;55.30;;;;;;5067572;28;20067;-58
2021/06/30 05:52:00;;;;;;;1.85;0.40;;;21.90;56.20;;;;;;5053071;28;20378;-61
2021/06/30 05:54:25;;;;;;;0.35;0.28;;;21.90;55.90;;;;;;5053449;28;20020;-60
2021/06/30 05:56:51;;;;;;;1.85;0.40;;;22.00;55.50;;;;;;5062722;28;20033;-61
2021/06/30 05:59:17;;;;;;;2.08;0.40;;;21.90;55.70;;;;;;5070817;28;20167;-60
2021/06/30 06:01:43;;;;;;;0.35;0.20;;;22.00;55.70;;;;;;5054677;28;20033;-60
2021/06/30 06:04:08;;;;;;;4.57;0.50;;;21.90;55.90;;;;;;5061073;28;20084;-59
2021/06/30 06:06:34;;;;;;;0.40;0.32;;;22.00;55.70;;;;;;5052007;28;20462;-57
2021/06/30 06:09:00;;;;;;;2.28;1.27;;;22.00;55.80;;;;;;5065769;28;20031;-59
2021/06/30 06:11:25;;;;;;;0.73;0.60;;;21.90;55.90;;;;;;5071437;28;20484;-59
2021/06/30 06:13:51;;;;;;;0.55;0.35;;;22.00;56.00;;;;;;5072929;28;20062;-59
2021/06/30 06:16:20;;;;;;;4.18;0.50;;;22.00;55.80;;;;;;5052323;28;20033;-59
2021/06/30 06:18:47;;;;;;;0.68;0.35;;;22.00;56.20;;;;;;5068464;28;20086;-59
2021/06/30 06:21:13;;;;;;;1.83;0.38;;;21.90;56.10;;;;;;5070857;28;20037;-59
2021/06/30 06:23:38;;;;;;;1.23;0.50;;;21.90;56.10;;;;;;5057802;28;20020;-59
2021/06/30 06:26:04;;;;;;;0.30;0.20;;;21.90;56.00;;;;;;5068902;28;20071;-58
2021/06/30 06:28:33;;;;;;;2.08;0.47;;;21.90;55.80;;;;;;5053592;28;20048;-59
2021/06/30 06:31:01;;;;;;;0.98;0.25;;;21.70;56.10;;;;;;5051946;28;20032;-60
2021/06/30 06:33:26;;;;;;;1.65;0.45;;;21.60;56.20;;;;;;5053711;28;20029;-59
2021/06/30 06:35:52;;;;;;;1.02;0.40;;;21.60;56.30;;;;;;5054174;28;20032;-60
2021/06/30 06:38:19;;;;;;;1.20;0.20;;;21.60;56.60;;;;;;5066763;28;20029;-59
2021/06/30 06:40:45;;;;;;;3.75;0.40;;;21.70;55.80;;;;;;5051265;28;20040;-59
2021/06/30 06:43:11;;;;;;;1.35;0.32;;;21.80;56.30;;;;;;5055294;28;20028;-59
2021/06/30 06:45:37;;;;;;;0.45;0.30;;;21.70;56.30;;;;;;5059783;28;20040;-56
2021/06/30 06:48:03;;;;;;;0.77;0.30;;;21.80;55.70;;;;;;5053268;28;20021;-59
2021/06/30 06:50:29;;;;;;;2.20;0.35;;;22.00;55.70;;;;;;5051791;28;20033;-58
2021/06/30 06:52:55;;;;;;;1.40;0.25;;;22.00;55.40;;;;;;5062032;28;20059;-59
2021/06/30 06:55:21;;;;;;;0.82;0.22;;;22.00;55.50;;;;;;5065243;28;20036;-59
2021/06/30 06:57:46;;;;;;;0.38;0.30;;;22.10;55.10;;;;;;5067845;28;20036;-59
2021/06/30 07:00:12;;;;;;;0.40;0.30;;;22.10;54.80;;;;;;5069447;28;20052;-58
2021/06/30 07:02:38;;;;;;;0.65;0.30;;;21.70;54.90;;;;;;5051848;28;20033;-58
2021/06/30 07:05:05;;;;;;;1.65;0.40;;;21.70;55.00;;;;;;5051265;28;20086;-58
2021/06/30 07:07:30;;;;;;;1.88;0.50;;;21.80;54.70;;;;;;5066696;28;20572;-58
2021/06/30 07:09:56;;;;;;;1.50;0.50;;;22.00;54.70;;;;;;5051528;28;20399;-59
2021/06/30 07:12:22;;;;;;;2.58;0.40;;;21.90;54.70;;;;;;5051302;28;20442;-59
2021/06/30 07:14:48;;;;;;;0.95;0.30;;;22.00;54.90;;;;;;5064870;28;20060;-58
2021/06/30 07:17:13;;;;;;;0.55;0.30;;;22.10;54.40;;;;;;5054546;28;20122;-61
2021/06/30 07:19:39;;;;;;;2.25;0.47;;;21.70;54.30;;;;;;5070237;28;20040;-59
2021/06/30 07:22:05;;;;;;;0.50;0.40;;;21.80;54.80;;;;;;5076309;28;20040;-57
2021/06/30 07:24:30;;;;;;;0.38;0.20;;;22.20;54.70;;;;;;5063094;28;20066;-57
2021/06/30 07:26:56;;;;;;;0.50;0.30;;;22.30;54.20;;;;;;5070292;28;20020;-55
2021/06/30 07:29:22;;;;;;;1.55;0.38;;;22.50;54.20;;;;;;5061873;28;20029;-57
2021/06/30 07:31:48;;;;;;;3.10;0.52;;;22.70;53.10;;;;;;5064850;28;20417;-58
2021/06/30 07:34:13;;;;;;;2.13;0.50;;;22.70;52.70;;;;;;5071643;28;20146;-59
2021/06/30 07:36:39;;;;;;;0.77;0.30;;;22.60;52.50;;;;;;5069405;28;20029;-58
2021/06/30 07:39:07;;;;;;;0.30;0.30;;;22.90;52.20;;;;;;5067516;28;20028;-57
2021/06/30 07:41:33;;;;;;;0.20;0.20;;;23.00;51.60;;;;;;5059906;28;20029;-56
2021/06/30 07:44:00;;;;;;;3.80;0.52;;;23.10;51.10;;;;;;5062341;28;20083;-58
2021/06/30 07:46:26;;;;;;;1.65;0.30;;;23.10;50.90;;;;;;5055397;28;20033;-57
2021/06/30 07:48:52;;;;;;;1.35;0.20;;;23.10;51.60;;;;;;5046227;28;20027;-57
2021/06/30 07:51:18;;;;;;;0.60;0.20;;;23.20;50.40;;;;;;5068864;28;20032;-57
2021/06/30 07:53:44;;;;;;;1.00;0.30;;;23.20;50.40;;;;;;5064956;28;20029;-57
2021/06/30 07:56:11;;;;;;;0.25;0.25;;;23.20;50.40;;;;;;5069830;28;20033;-57
2021/06/30 07:58:38;;;;;;;0.65;0.30;;;23.30;49.70;;;;;;5063206;28;20398;-55
2021/06/30 08:01:03;;;;;;;0.30;0.20;;;23.10;49.80;;;;;;5058197;28;20478;-56
2021/06/30 08:03:29;;;;;;;0.20;0.20;;;23.20;49.70;;;;;;5054128;28;20021;-57
2021/06/30 08:05:55;;;;;;;0.80;0.60;;;23.20;49.80;;;;;;5059416;28;20489;-58
2021/06/30 08:08:20;;;;;;;0.38;0.20;;;23.30;50.00;;;;;;5065591;28;20066;-57
2021/06/30 08:10:47;;;;;;;1.02;0.30;;;23.30;50.00;;;;;;5058516;28;20029;-56
2021/06/30 08:13:13;;;;;;;0.40;0.20;;;23.30;50.00;;;;;;5064407;28;20035;-56
2021/06/30 08:15:38;;;;;;;0.77;0.20;;;23.50;49.70;;;;;;5063884;28;20083;-55
2021/06/30 08:18:04;;;;;;;0.40;0.30;;;23.60;49.40;;;;;;5068447;28;20055;-56
2021/06/30 08:20:30;;;;;;;0.10;0.10;;;23.50;49.70;;;;;;5060820;28;20118;-57
2021/06/30 08:22:55;;;;;;;0.30;0.20;;;23.60;49.70;;;;;;5062794;28;20031;-56
2021/06/30 08:25:24;;;;;;;0.65;0.30;;;23.70;49.60;;;;;;5074370;28;20028;-57
2021/06/30 08:27:53;;;;;;;1.05;0.30;;;23.80;49.70;;;;;;5073335;28;20434;-56
2021/06/30 08:30:19;;;;;;;0.47;0.17;;;23.80;49.70;;;;;;5070638;28;20028;-57
2021/06/30 08:32:46;;;;;;;0.35;0.30;;;23.80;49.60;;;;;;5073809;28;20051;-57
2021/06/30 08:35:14;;;;;;;0.88;0.20;;;23.80;49.60;;;;;;5074743;28;20030;-57
2021/06/30 08:37:41;;;;;;;0.20;0.20;;;23.90;49.60;;;;;;5074398;28;20032;-56
2021/06/30 08:40:11;;;;;;;0.35;0.30;;;24.00;49.60;;;;;;5074699;28;20078;-57
2021/06/30 08:42:40;;;;;;;0.20;0.20;;;24.00;49.50;;;;;;5074348;28;20035;-57
2021/06/30 08:45:07;;;;;;;0.25;0.20;;;23.90;49.10;;;;;;5073853;28;20052;-56
2021/06/30 08:47:36;;;;;;;1.08;0.20;;;23.30;50.10;;;;;;5073672;28;20025;-57
2021/06/30 08:50:06;;;;;;;0.52;0.35;;;23.40;50.70;;;;;;5073700;28;20029;-56
2021/06/30 08:52:34;;;;;;;0.10;0.10;;;23.60;50.10;;;;;;5074716;28;20032;-56
2021/06/30 08:55:02;;;;;;;0.10;0.10;;;23.60;49.80;;;;;;5073396;28;20016;-56
2021/06/30 08:57:30;;;;;;;0.20;0.20;;;23.80;49.60;;;;;;5074216;28;20025;-56
2021/06/30 08:59:57;;;;;;;0.57;0.20;;;23.70;49.10;;;;;;5072627;28;20132;-56
2021/06/30 09:02:22;;;;;;;0.43;0.10;;;23.80;49.30;;;;;;5050596;28;20393;-57
2021/06/30 09:04:52;;;;;;;0.55;0.30;;;23.80;48.60;;;;;;5055230;28;20021;-57
2021/06/30 09:07:18;;;;;;;0.30;0.20;;;23.70;48.70;;;;;;5073430;28;20470;-57
2021/06/30 09:09:43;;;;;;;0.85;0.10;;;23.60;49.80;;;;;;5055374;28;20036;-56
2021/06/30 09:12:10;;;;;;;0.10;0.10;;;23.70;50.20;;;;;;5053078;28;20029;-57
2021/06/30 09:14:37;;;;;;;0.40;0.38;;;23.70;50.30;;;;;;5064480;28;20033;-57
2021/06/30 09:17:22;;;;;;;0.60;0.30;;;23.80;50.70;;;;;;5058543;28;20024;-57
2021/06/30 09:19:51;;;;;;;0.47;0.30;;;23.70;50.40;;;;;;5057723;28;20481;-56
2021/06/30 09:22:18;;;;;;;2.95;1.05;;;23.80;50.40;;;;;;5068347;28;20386;-57
2021/06/30 09:24:45;;;;;;;0.75;0.30;;;23.70;49.70;;;;;;5068941;28;20025;-56
2021/06/30 09:27:13;;;;;;;0.30;0.20;;;23.60;49.90;;;;;;5071919;28;20033;-57
2021/06/30 09:29:41;;;;;;;0.40;0.30;;;23.70;49.30;;;;;;5059938;28;20393;-57
2021/06/30 09:32:09;;;;;;;0.20;0.15;;;23.40;49.70;;;;;;5071343;28;20116;-57
2021/06/30 09:34:35;;;;;;;0.98;0.30;;;23.50;49.80;;;;;;5073192;28;20417;-57
2021/06/30 09:37:04;;;;;;;0.30;0.30;;;23.50;49.80;;;;;;5072899;28;20024;-55
2021/06/30 09:39:34;;;;;;;2.65;0.40;;;23.30;49.40;;;;;;5073702;28;20082;-56
2021/06/30 09:42:13;;;;;;;0.20;0.20;;;23.10;50.50;;;;;;5073047;28;20075;-55
2021/06/30 09:44:42;;;;;;;1.92;0.40;;;23.20;49.80;;;;;;5086910;28;20032;-56
2021/06/30 09:47:08;;;;;;;0.32;0.20;;;23.30;49.70;;;;;;5092909;28;20028;-56
2021/06/30 09:49:38;;;;;;;0.30;0.30;;;23.40;49.00;;;;;;5093629;28;20389;-57
2021/06/30 09:52:18;;;;;;;1.00;0.30;;;23.50;48.90;;;;;;5093087;28;20055;-57
2021/06/30 09:54:46;;;;;;;0.25;0.10;;;23.80;49.80;;;;;;5093094;28;20376;-54
2021/06/30 09:57:15;;;;;;;0.20;0.20;;;23.40;48.20;;;;;;5093797;28;20024;-57
2021/06/30 09:59:45;;;;;;;0.43;0.28;;;23.20;49.50;;;;;;5090363;28;20070;-57
2021/06/30 10:02:13;;;;;;;0.47;0.30;;;22.90;52.90;;;;;;5073182;28;20486;-56
2021/06/30 10:04:40;;;;;;;1.75;0.30;;;22.90;53.30;;;;;;5073168;28;20025;-56
2021/06/30 10:07:13;;;;;;;0.57;0.20;;;23.00;53.40;;;;;;5072149;28;20032;-56
2021/06/30 10:10:00;;;;;;;0.57;0.30;;;23.30;53.50;;;;;;5072892;28;20063;-57
2021/06/30 10:12:29;;;;;;;0.10;0.10;;;23.20;53.70;;;;;;5073491;28;20028;-56
2021/06/30 10:14:56;;;;;;;1.08;0.40;;;23.40;54.70;;;;;;5072374;28;20393;-56
2021/06/30 10:17:22;;;;;;;0.82;0.52;;;23.50;53.50;;;;;;5072641;28;20040;-57
2021/06/30 10:19:49;;;;;;;1.42;0.77;;;23.50;53.90;;;;;;5072228;28;20024;-56
2021/06/30 10:22:15;;;;;;;0.60;0.40;;;23.50;52.80;;;;;;5080027;28;20054;-56
2021/06/30 10:24:42;;;;;;;1.27;0.30;;;23.50;52.70;;;;;;5093017;28;20036;-57
2021/06/30 10:27:12;;;;;;;0.10;0.10;;;23.40;51.60;;;;;;5092471;28;20028;-57
2021/06/30 10:29:44;;;;;;;1.67;0.22;;;23.40;51.60;;;;;;5090598;28;20032;-57
2021/06/30 10:32:12;;;;;;;1.17;0.20;;;23.60;51.50;;;;;;5072632;28;20147;-57
2021/06/30 10:34:42;;;;;;;0.77;0.40;;;23.40;51.40;;;;;;5072436;28;20469;-57
2021/06/30 10:37:22;;;;;;;1.17;0.30;;;23.60;52.00;;;;;;5071985;28;20047;-57
2021/06/30 10:40:04;;;;;;;0.60;0.30;;;23.80;50.10;;;;;;5071926;28;20025;-57
2021/06/30 10:42:34;;;;;;;0.20;0.20;;;23.50;48.60;;;;;;5072826;28;20040;-57
2021/06/30 10:45:05;;;;;;;0.50;0.20;;;23.50;49.20;;;;;;5087261;28;20562;-57
2021/06/30 10:47:39;;;;;;;0.55;0.32;;;23.50;48.70;;;;;;5092603;28;20503;-57
2021/06/30 10:50:26;;;;;;;0.20;0.20;;;23.30;48.10;;;;;;5092171;28;20356;-57
2021/06/30 10:53:22;;;;;;;0.22;0.20;;;23.40;48.60;;;;;;5092073;28;20027;-57
2021/06/30 10:55:53;;;;;;;1.33;0.30;;;23.50;48.20;;;;;;5091851;28;20024;-56
2021/06/30 10:58:27;;;;;;;0.20;0.20;;;23.70;48.00;;;;;;5092498;28;20052;-57
2021/06/30 11:00:58;;;;;;;0.25;0.15;;;23.70;47.30;;;;;;5070126;28;20090;-57
2021/06/30 11:03:54;;;;;;;0.60;0.25;;;23.50;47.60;;;;;;5069104;28;20347;-56
2021/06/30 11:06:25;;;;;;;1.23;0.40;;;23.50;47.10;;;;;;5059524;28;20389;-57
2021/06/30 11:09:09;;;;;;;0.88;0.25;;;23.50;47.40;;;;;;5071738;28;20032;-55
2021/06/30 11:11:35;;;;;;;0.32;0.20;;;23.30;47.90;;;;;;5071754;28;20390;-56
2021/06/30 11:14:02;;;;;;;0.20;0.20;;;23.60;47.90;;;;;;5078844;28;20028;-55
2021/06/30 11:16:37;;;;;;;1.05;0.40;;;23.90;47.90;;;;;;5092209;28;20032;-58
2021/06/30 11:19:22;;;;;;;0.75;0.30;;;24.20;48.30;;;;;;5091790;28;20024;-58
2021/06/30 11:21:52;;;;;;;5.10;1.05;;;24.30;49.30;;;;;;5073717;28;20036;-57
2021/06/30 11:24:40;;;;;;;2.63;0.40;;;24.50;50.20;;;;;;5092381;28;20021;-58
2021/06/30 11:27:25;;;;;;;0.82;0.32;;;24.50;52.30;;;;;;5091687;28;20027;-57
2021/06/30 11:30:05;;;;;;;2.33;0.45;;;24.50;52.10;;;;;;5086974;28;20108;-55
2021/06/30 11:32:35;;;;;;;0.73;0.57;;;24.50;53.60;;;;;;5071428;28;20040;-56
2021/06/30 11:35:00;;;;;;;2.75;0.47;;;24.60;54.30;;;;;;5070762;28;20036;-57
2021/06/30 11:37:27;;;;;;;2.55;0.30;;;24.60;54.30;;;;;;5071491;28;20377;-56
2021/06/30 11:40:07;;;;;;;0.70;0.35;;;24.60;55.30;;;;;;5071023;28;20028;-56
2021/06/30 11:42:33;;;;;;;3.60;0.40;;;24.60;55.50;;;;;;5071485;28;20063;-57
2021/06/30 11:44:59;;;;;;;1.17;0.40;;;24.70;55.00;;;;;;5074572;28;20025;-57
2021/06/30 11:47:26;;;;;;;1.73;0.50;;;24.70;55.90;;;;;;5072234;28;20096;-57
2021/06/30 11:50:02;;;;;;;0.45;0.30;;;24.70;57.50;;;;;;5071025;28;20591;-56
2021/06/30 11:52:29;;;;;;;0.40;0.40;;;24.60;57.50;;;;;;5071154;28;20550;-56
2021/06/30 11:54:58;;;;;;;0.85;0.40;;;24.60;57.40;;;;;;5070353;28;20827;-56
2021/06/30 11:57:25;;;;;;;0.55;0.40;;;24.60;58.30;;;;;;5071639;28;20024;-56
2021/06/30 12:00:08;;;;;;;0.90;0.43;;;24.60;58.60;;;;;;5070210;28;20044;-54
2021/06/30 12:02:47;;;;;;;0.98;0.40;;;24.60;58.60;;;;;;5071039;28;20162;-57
2021/06/30 12:05:14;;;;;;;0.70;0.40;;;24.60;58.10;;;;;;5071028;28;20029;-56
2021/06/30 12:07:43;;;;;;;0.70;0.30;;;24.60;59.50;;;;;;5070457;28;20478;-56
2021/06/30 12:10:10;;;;;;;0.45;0.30;;;24.60;59.50;;;;;;5050950;28;20060;-57
2021/06/30 12:12:36;;;;;;;1.00;0.30;;;24.60;59.90;;;;;;5051668;28;20021;-57
2021/06/30 12:15:07;;;;;;;1.02;0.40;;;24.60;59.80;;;;;;5081735;28;20431;-57
2021/06/30 12:17:33;;;;;;;0.60;0.30;;;24.60;60.10;;;;;;5091475;28;20028;-57
2021/06/30 12:20:00;;;;;;;0.85;0.32;;;24.60;60.10;;;;;;5092157;28;20059;-56
2021/06/30 12:22:37;;;;;;;0.35;0.35;;;24.60;60.40;;;;;;5094878;28;20028;-56
2021/06/30 12:25:18;;;;;;;6.60;0.82;;;24.70;60.40;;;;;;5094246;28;20028;-56
2021/06/30 12:27:55;;;;;;;1.75;0.43;;;24.70;59.60;;;;;;5095358;28;20086;-57
2021/06/30 12:30:23;;;;;;;0.30;0.30;;;24.70;60.80;;;;;;5086226;28;20464;-57
2021/06/30 12:32:50;;;;;;;0.90;0.40;;;24.70;59.10;;;;;;5073407;28;20058;-56
2021/06/30 12:35:21;;;;;;;2.08;0.30;;;24.70;61.10;;;;;;5074489;28;20089;-56
2021/06/30 12:37:57;;;;;;;0.70;0.40;;;24.70;61.40;;;;;;5074556;28;20365;-57
2021/06/30 12:40:24;;;;;;;0.30;0.20;;;24.70;61.10;;;;;;5074367;28;20024;-57
2021/06/30 12:42:51;;;;;;;1.88;0.40;;;24.70;60.50;;;;;;5073949;28;20446;-54
2021/06/30 12:45:39;;;;;;;0.40;0.30;;;24.70;61.70;;;;;;5091085;28;20032;-57
2021/06/30 12:48:16;;;;;;;0.55;0.30;;;24.60;60.70;;;;;;5092784;28;20058;-57
2021/06/30 12:50:53;;;;;;;1.15;0.40;;;24.50;60.70;;;;;;5094253;28;20074;-56